Terminal Aerodrome Forecast
Issued by NWS

Home | Current Version | Previous Version | Text Only | Print | Product List | Glossary On
Versions: 1 2 3 4 5 6 7 8 9 10 11 12 13 14
000
FTUS46 KPDT 271700
TAFBDN
TAF
KBDN 271737Z 2718/2818 18005KT P6SM BKN150
     FM272100 29006KT P6SM SCT080 BKN150
     FM280200 31005KT P6SM SCT040 OVC060
     FM280800 20007KT P6SM SCT050 BKN080=

USA.gov is the U.S. government's official web portal to all federal, state and local government web resources and services.